sensor_id;sensor_type;location;lat;lon;timestamp;pressure;altitude;pressure_sealevel;temperature;humidity
75063;BME280;63981;51.052;13.754;2023-03-25T00:01:34;99369.81;;;11.61;62.92
75063;BME280;63981;51.052;13.754;2023-03-25T00:04:00;99377.53;;;11.53;63.51
75063;BME280;63981;51.052;13.754;2023-03-25T00:06:29;99368.66;;;11.54;63.72
75063;BME280;63981;51.052;13.754;2023-03-25T00:08:55;99362.81;;;11.50;63.46
75063;BME280;63981;51.052;13.754;2023-03-25T00:11:21;99365.50;;;11.39;63.77
75063;BME280;63981;51.052;13.754;2023-03-25T00:13:48;99378.59;;;11.62;62.98
75063;BME280;63981;51.052;13.754;2023-03-25T00:16:14;99354.94;;;11.39;63.25
75063;BME280;63981;51.052;13.754;2023-03-25T00:18:40;99355.53;;;11.64;62.63
75063;BME280;63981;51.052;13.754;2023-03-25T00:21:07;99358.09;;;11.54;62.89
75063;BME280;63981;51.052;13.754;2023-03-25T00:23:37;99348.38;;;11.55;62.51
75063;BME280;63981;51.052;13.754;2023-03-25T00:26:04;99349.56;;;11.62;62.20
75063;BME280;63981;51.052;13.754;2023-03-25T00:28:33;99344.84;;;11.44;63.01
75063;BME280;63981;51.052;13.754;2023-03-25T00:31:03;99337.38;;;11.49;62.88
75063;BME280;63981;51.052;13.754;2023-03-25T00:33:30;99332.31;;;11.37;62.83
75063;BME280;63981;51.052;13.754;2023-03-25T00:36:00;99335.50;;;11.40;63.32
75063;BME280;63981;51.052;13.754;2023-03-25T00:38:30;99332.09;;;11.29;63.10
75063;BME280;63981;51.052;13.754;2023-03-25T00:41:19;99338.91;;;11.10;64.17
75063;BME280;63981;51.052;13.754;2023-03-25T00:43:58;99340.41;;;11.24;63.72
75063;BME280;63981;51.052;13.754;2023-03-25T00:46:27;99341.38;;;11.23;63.40
75063;BME280;63981;51.052;13.754;2023-03-25T00:48:55;99339.09;;;11.18;63.67
75063;BME280;63981;51.052;13.754;2023-03-25T00:51:22;99342.63;;;11.08;63.85
75063;BME280;63981;51.052;13.754;2023-03-25T00:53:51;99333.81;;;11.18;64.24
75063;BME280;63981;51.052;13.754;2023-03-25T00:56:17;99339.38;;;11.04;64.15
75063;BME280;63981;51.052;13.754;2023-03-25T00:58:43;99346.16;;;11.18;63.48
75063;BME280;63981;51.052;13.754;2023-03-25T01:01:13;99333.63;;;11.31;63.59
75063;BME280;63981;51.052;13.754;2023-03-25T01:03:40;99331.38;;;11.27;63.56
75063;BME280;63981;51.052;13.754;2023-03-25T01:06:12;99342.78;;;11.27;63.06
75063;BME280;63981;51.052;13.754;2023-03-25T01:08:40;99334.84;;;11.27;63.09
75063;BME280;63981;51.052;13.754;2023-03-25T01:11:17;99336.25;;;11.31;63.22
75063;BME280;63981;51.052;13.754;2023-03-25T01:13:44;99333.59;;;11.21;63.03
75063;BME280;63981;51.052;13.754;2023-03-25T01:16:11;99322.50;;;11.28;63.28
75063;BME280;63981;51.052;13.754;2023-03-25T01:18:36;99331.97;;;11.09;63.19
75063;BME280;63981;51.052;13.754;2023-03-25T01:21:04;99320.44;;;11.10;63.67
75063;BME280;63981;51.052;13.754;2023-03-25T01:23:31;99311.34;;;11.03;63.42
75063;BME280;63981;51.052;13.754;2023-03-25T01:25:57;99321.09;;;11.23;63.13
75063;BME280;63981;51.052;13.754;2023-03-25T01:28:22;99306.84;;;11.15;63.78
75063;BME280;63981;51.052;13.754;2023-03-25T01:30:48;99321.75;;;11.05;63.55
75063;BME280;63981;51.052;13.754;2023-03-25T01:33:14;99305.25;;;11.03;63.89
75063;BME280;63981;51.052;13.754;2023-03-25T01:35:41;99310.16;;;11.28;63.14
75063;BME280;63981;51.052;13.754;2023-03-25T01:38:06;99301.06;;;11.00;63.65
75063;BME280;63981;51.052;13.754;2023-03-25T01:40:33;99304.28;;;11.04;64.05
75063;BME280;63981;51.052;13.754;2023-03-25T01:42:58;99293.84;;;11.02;63.69
75063;BME280;63981;51.052;13.754;2023-03-25T01:45:29;99298.38;;;11.11;63.57
75063;BME280;63981;51.052;13.754;2023-03-25T01:48:21;99294.69;;;11.03;64.35
75063;BME280;63981;51.052;13.754;2023-03-25T01:50:53;99288.47;;;11.25;63.16
75063;BME280;63981;51.052;13.754;2023-03-25T01:53:20;99292.78;;;11.26;63.69
75063;BME280;63981;51.052;13.754;2023-03-25T01:55:46;99281.44;;;11.14;64.21
75063;BME280;63981;51.052;13.754;2023-03-25T01:58:16;99277.53;;;11.08;64.27
75063;BME280;63981;51.052;13.754;2023-03-25T02:00:44;99274.13;;;11.38;63.18
75063;BME280;63981;51.052;13.754;2023-03-25T02:03:11;99258.09;;;10.88;64.12
75063;BME280;63981;51.052;13.754;2023-03-25T02:08:32;99272.78;;;11.23;63.89
75063;BME280;63981;51.052;13.754;2023-03-25T02:11:03;99275.97;;;11.27;64.14
75063;BME280;63981;51.052;13.754;2023-03-25T02:13:29;99275.22;;;11.15;63.92
75063;BME280;63981;51.052;13.754;2023-03-25T02:21:48;99279.72;;;11.24;63.68
75063;BME280;63981;51.052;13.754;2023-03-25T02:33:10;99265.22;;;11.18;64.08
75063;BME280;63981;51.052;13.754;2023-03-25T02:39:21;99260.88;;;11.08;64.17
75063;BME280;63981;51.052;13.754;2023-03-25T02:44:43;99254.53;;;11.41;62.49
75063;BME280;63981;51.052;13.754;2023-03-25T02:47:17;99241.88;;;11.35;63.08
75063;BME280;63981;51.052;13.754;2023-03-25T02:49:49;99240.91;;;11.15;63.78
75063;BME280;63981;51.052;13.754;2023-03-25T02:52:24;99241.88;;;11.14;63.33
75063;BME280;63981;51.052;13.754;2023-03-25T02:54:53;99242.25;;;11.30;63.12
75063;BME280;63981;51.052;13.754;2023-03-25T02:57:30;99241.88;;;10.93;63.96
75063;BME280;63981;51.052;13.754;2023-03-25T02:59:57;99254.88;;;10.85;64.12
75063;BME280;63981;51.052;13.754;2023-03-25T03:02:25;99251.34;;;10.96;64.09
75063;BME280;63981;51.052;13.754;2023-03-25T03:04:55;99251.44;;;10.73;64.87
75063;BME280;63981;51.052;13.754;2023-03-25T03:12:40;99243.50;;;10.84;64.45
75063;BME280;63981;51.052;13.754;2023-03-25T03:15:22;99255.06;;;10.72;64.63
75063;BME280;63981;51.052;13.754;2023-03-25T03:18:27;99256.50;;;10.97;64.39
75063;BME280;63981;51.052;13.754;2023-03-25T03:26:42;99256.28;;;10.89;64.64
75063;BME280;63981;51.052;13.754;2023-03-25T03:31:51;99256.66;;;11.05;64.52
75063;BME280;63981;51.052;13.754;2023-03-25T03:34:30;99261.13;;;10.84;64.67
75063;BME280;63981;51.052;13.754;2023-03-25T03:37:02;99263.22;;;10.69;65.15
75063;BME280;63981;51.052;13.754;2023-03-25T03:39:36;99249.66;;;10.74;65.07
75063;BME280;63981;51.052;13.754;2023-03-25T03:42:12;99250.75;;;10.71;64.72
75063;BME280;63981;51.052;13.754;2023-03-25T03:44:43;99258.13;;;10.77;64.50
75063;BME280;63981;51.052;13.754;2023-03-25T03:47:13;99260.28;;;10.83;64.06
75063;BME280;63981;51.052;13.754;2023-03-25T03:49:56;99265.03;;;10.89;63.72
75063;BME280;63981;51.052;13.754;2023-03-25T03:52:34;99266.50;;;11.03;63.15
75063;BME280;63981;51.052;13.754;2023-03-25T03:57:52;99261.78;;;10.97;63.08
75063;BME280;63981;51.052;13.754;2023-03-25T04:00:27;99234.22;;;10.69;62.98
75063;BME280;63981;51.052;13.754;2023-03-25T04:05:33;99264.41;;;11.18;62.52
75063;BME280;63981;51.052;13.754;2023-03-25T04:08:06;99279.22;;;11.09;62.55
75063;BME280;63981;51.052;13.754;2023-03-25T04:10:41;99275.22;;;10.94;62.83
75063;BME280;63981;51.052;13.754;2023-03-25T04:13:12;99283.91;;;10.74;63.04
75063;BME280;63981;51.052;13.754;2023-03-25T04:15:41;99268.88;;;10.85;63.26
75063;BME280;63981;51.052;13.754;2023-03-25T04:18:07;99268.31;;;10.82;62.82
75063;BME280;63981;51.052;13.754;2023-03-25T04:20:33;99271.47;;;10.97;62.46
75063;BME280;63981;51.052;13.754;2023-03-25T04:23:02;99279.22;;;10.77;63.19
75063;BME280;63981;51.052;13.754;2023-03-25T04:25:30;99245.81;;;10.46;63.28
75063;BME280;63981;51.052;13.754;2023-03-25T04:27:57;99273.97;;;10.66;63.12
75063;BME280;63981;51.052;13.754;2023-03-25T04:30:28;99268.03;;;10.53;63.78
75063;BME280;63981;51.052;13.754;2023-03-25T04:32:53;99285.13;;;10.70;63.76
75063;BME280;63981;51.052;13.754;2023-03-25T04:35:20;99280.06;;;10.78;63.21
75063;BME280;63981;51.052;13.754;2023-03-25T04:37:46;99282.19;;;10.84;63.20
75063;BME280;63981;51.052;13.754;2023-03-25T04:40:18;99290.16;;;10.73;63.62
75063;BME280;63981;51.052;13.754;2023-03-25T04:42:47;99285.00;;;10.71;63.24
75063;BME280;63981;51.052;13.754;2023-03-25T04:45:13;99283.66;;;10.77;63.60
75063;BME280;63981;51.052;13.754;2023-03-25T04:47:44;99282.53;;;10.90;62.63
75063;BME280;63981;51.052;13.754;2023-03-25T04:50:20;99283.03;;;11.05;62.55
75063;BME280;63981;51.052;13.754;2023-03-25T04:52:47;99286.53;;;11.27;61.64
75063;BME280;63981;51.052;13.754;2023-03-25T04:55:14;99233.84;;;10.74;62.43
75063;BME280;63981;51.052;13.754;2023-03-25T04:57:45;99286.03;;;11.12;62.37
75063;BME280;63981;51.052;13.754;2023-03-25T05:00:13;99286.22;;;11.20;61.00
75063;BME280;63981;51.052;13.754;2023-03-25T05:02:47;99287.03;;;11.41;61.19
75063;BME280;63981;51.052;13.754;2023-03-25T05:05:19;99278.34;;;11.30;60.52
75063;BME280;63981;51.052;13.754;2023-03-25T05:07:46;99280.16;;;11.29;61.25
75063;BME280;63981;51.052;13.754;2023-03-25T05:10:18;99289.09;;;11.17;61.40
75063;BME280;63981;51.052;13.754;2023-03-25T05:12:45;99260.16;;;10.85;61.07
75063;BME280;63981;51.052;13.754;2023-03-25T05:15:11;99292.72;;;10.95;61.52
75063;BME280;63981;51.052;13.754;2023-03-25T05:17:38;99288.97;;;11.39;60.08
75063;BME280;63981;51.052;13.754;2023-03-25T05:20:05;99285.50;;;11.18;60.60
75063;BME280;63981;51.052;13.754;2023-03-25T05:22:33;99295.56;;;11.24;60.24
75063;BME280;63981;51.052;13.754;2023-03-25T05:25:00;99292.75;;;11.05;61.14
75063;BME280;63981;51.052;13.754;2023-03-25T05:27:29;99301.41;;;11.28;59.87
75063;BME280;63981;51.052;13.754;2023-03-25T05:29:55;99306.22;;;11.22;60.33
75063;BME280;63981;51.052;13.754;2023-03-25T05:32:25;99273.41;;;10.95;60.58
75063;BME280;63981;51.052;13.754;2023-03-25T05:34:55;99303.91;;;11.08;60.76
75063;BME280;63981;51.052;13.754;2023-03-25T05:37:21;99294.25;;;10.98;61.63
75063;BME280;63981;51.052;13.754;2023-03-25T05:39:47;99298.38;;;10.79;61.76
75063;BME280;63981;51.052;13.754;2023-03-25T05:42:13;99302.69;;;10.80;61.45
75063;BME280;63981;51.052;13.754;2023-03-25T05:44:39;99292.75;;;11.05;59.97
75063;BME280;63981;51.052;13.754;2023-03-25T05:47:11;99297.06;;;11.06;59.25
75063;BME280;63981;51.052;13.754;2023-03-25T05:49:38;99291.69;;;11.07;58.53
75063;BME280;63981;51.052;13.754;2023-03-25T05:52:06;99295.75;;;11.11;57.97
75063;BME280;63981;51.052;13.754;2023-03-25T05:54:33;99299.97;;;11.03;58.98
75063;BME280;63981;51.052;13.754;2023-03-25T05:57:04;99270.03;;;10.92;58.30
75063;BME280;63981;51.052;13.754;2023-03-25T05:59:29;99296.00;;;11.29;56.43
75063;BME280;63981;51.052;13.754;2023-03-25T06:01:55;99299.75;;;11.47;54.70
75063;BME280;63981;51.052;13.754;2023-03-25T06:04:21;99308.56;;;11.37;55.75
75063;BME280;63981;51.052;13.754;2023-03-25T06:06:48;99285.31;;;11.10;55.14
75063;BME280;63981;51.052;13.754;2023-03-25T06:09:14;99313.44;;;11.41;54.47
75063;BME280;63981;51.052;13.754;2023-03-25T06:11:39;99310.69;;;11.22;55.34
75063;BME280;63981;51.052;13.754;2023-03-25T06:14:06;99324.91;;;10.99;56.27
75063;BME280;63981;51.052;13.754;2023-03-25T06:16:31;99332.94;;;11.08;57.02
75063;BME280;63981;51.052;13.754;2023-03-25T06:18:58;99331.16;;;10.98;56.26
75063;BME280;63981;51.052;13.754;2023-03-25T06:21:26;99298.63;;;10.44;58.22
75063;BME280;63981;51.052;13.754;2023-03-25T06:23:53;99349.97;;;10.61;58.60
75063;BME280;63981;51.052;13.754;2023-03-25T06:26:21;99325.13;;;10.75;58.11
75063;BME280;63981;51.052;13.754;2023-03-25T06:28:47;99345.78;;;10.47;59.30
75063;BME280;63981;51.052;13.754;2023-03-25T06:31:15;99347.13;;;10.42;60.39
75063;BME280;63981;51.052;13.754;2023-03-25T06:33:42;99334.16;;;10.50;60.22
75063;BME280;63981;51.052;13.754;2023-03-25T06:36:09;99341.31;;;10.70;59.75
75063;BME280;63981;51.052;13.754;2023-03-25T06:38:37;99348.59;;;10.78;59.44
75063;BME280;63981;51.052;13.754;2023-03-25T06:41:07;99345.78;;;10.90;59.08
75063;BME280;63981;51.052;13.754;2023-03-25T06:43:36;99342.41;;;11.00;59.22
75063;BME280;63981;51.052;13.754;2023-03-25T06:46:28;99343.56;;;11.39;58.16
75063;BME280;63981;51.052;13.754;2023-03-25T06:49:14;99340.00;;;11.70;55.65
75063;BME280;63981;51.052;13.754;2023-03-25T06:51:39;99330.75;;;12.06;55.64
75063;BME280;63981;51.052;13.754;2023-03-25T06:54:05;99334.22;;;12.47;53.50
75063;BME280;63981;51.052;13.754;2023-03-25T06:56:31;99345.84;;;12.65;54.09
75063;BME280;63981;51.052;13.754;2023-03-25T06:58:56;99334.72;;;13.00;52.10
75063;BME280;63981;51.052;13.754;2023-03-25T07:01:22;99350.88;;;12.97;52.01
75063;BME280;63981;51.052;13.754;2023-03-25T07:03:48;99346.94;;;12.73;52.66
75063;BME280;63981;51.052;13.754;2023-03-25T07:06:19;99336.47;;;12.61;51.87
75063;BME280;63981;51.052;13.754;2023-03-25T07:08:46;99350.28;;;12.65;52.29
75063;BME280;63981;51.052;13.754;2023-03-25T07:11:13;99350.78;;;12.49;52.35
75063;BME280;63981;51.052;13.754;2023-03-25T07:13:39;99339.97;;;12.52;52.56
75063;BME280;63981;51.052;13.754;2023-03-25T07:16:05;99346.41;;;12.79;52.20
75063;BME280;63981;51.052;13.754;2023-03-25T07:18:32;99345.75;;;13.06;51.68
75063;BME280;63981;51.052;13.754;2023-03-25T07:20:57;99315.97;;;13.23;51.20
75063;BME280;63981;51.052;13.754;2023-03-25T07:23:24;99341.84;;;13.48;49.84
75063;BME280;63981;51.052;13.754;2023-03-25T07:25:50;99350.47;;;13.70;49.28
75063;BME280;63981;51.052;13.754;2023-03-25T07:28:16;99345.41;;;13.76;49.84
75063;BME280;63981;51.052;13.754;2023-03-25T07:30:45;99343.06;;;14.75;46.82
75063;BME280;63981;51.052;13.754;2023-03-25T07:33:11;99344.56;;;14.78;47.32
75063;BME280;63981;51.052;13.754;2023-03-25T07:35:37;99340.81;;;14.43;47.26
75063;BME280;63981;51.052;13.754;2023-03-25T07:38:02;99321.03;;;13.73;48.42
75063;BME280;63981;51.052;13.754;2023-03-25T07:40:28;99351.75;;;13.27;48.58
75063;BME280;63981;51.052;13.754;2023-03-25T07:42:54;99359.38;;;13.59;48.37
75063;BME280;63981;51.052;13.754;2023-03-25T07:45:21;99363.59;;;13.23;48.36
75063;BME280;63981;51.052;13.754;2023-03-25T07:47:50;99358.59;;;13.20;48.51
75063;BME280;63981;51.052;13.754;2023-03-25T07:50:17;99358.38;;;12.83;50.44
75063;BME280;63981;51.052;13.754;2023-03-25T07:52:43;99317.63;;;12.35;50.35
75063;BME280;63981;51.052;13.754;2023-03-25T07:55:09;99374.00;;;12.46;51.24
75063;BME280;63981;51.052;13.754;2023-03-25T07:57:34;99371.31;;;12.26;51.60
75063;BME280;63981;51.052;13.754;2023-03-25T08:00:00;99378.09;;;12.59;51.25
75063;BME280;63981;51.052;13.754;2023-03-25T08:02:26;99380.22;;;12.25;52.35
75063;BME280;63981;51.052;13.754;2023-03-25T08:04:52;99391.97;;;12.42;52.71
75063;BME280;63981;51.052;13.754;2023-03-25T08:07:22;99392.53;;;12.15;54.07
75063;BME280;63981;51.052;13.754;2023-03-25T08:09:48;99387.53;;;12.52;54.15
75063;BME280;63981;51.052;13.754;2023-03-25T08:12:13;99393.28;;;12.67;54.59
75063;BME280;63981;51.052;13.754;2023-03-25T08:14:39;99399.28;;;12.29;56.13
75063;BME280;63981;51.052;13.754;2023-03-25T08:17:05;99409.28;;;12.25;56.88
75063;BME280;63981;51.052;13.754;2023-03-25T08:19:32;99366.72;;;11.77;58.16
75063;BME280;63981;51.052;13.754;2023-03-25T08:21:58;99396.56;;;11.89;58.99
75063;BME280;63981;51.052;13.754;2023-03-25T08:24:24;99388.31;;;12.03;59.18
75063;BME280;63981;51.052;13.754;2023-03-25T08:26:51;99404.59;;;12.08;59.53
75063;BME280;63981;51.052;13.754;2023-03-25T08:29:19;99398.06;;;11.70;60.37
75063;BME280;63981;51.052;13.754;2023-03-25T08:31:45;99366.16;;;11.52;60.91
75063;BME280;63981;51.052;13.754;2023-03-25T08:34:18;99410.13;;;11.63;61.19
75063;BME280;63981;51.052;13.754;2023-03-25T08:36:44;99379.13;;;11.23;62.22
75063;BME280;63981;51.052;13.754;2023-03-25T08:39:10;99422.00;;;11.37;62.80
75063;BME280;63981;51.052;13.754;2023-03-25T08:41:36;99424.66;;;10.93;66.15
75063;BME280;63981;51.052;13.754;2023-03-25T08:44:04;99429.50;;;10.21;71.17
75063;BME280;63981;51.052;13.754;2023-03-25T08:46:29;99424.47;;;10.63;68.85
75063;BME280;63981;51.052;13.754;2023-03-25T08:48:55;99438.25;;;10.44;69.54
75063;BME280;63981;51.052;13.754;2023-03-25T08:51:21;99432.91;;;9.99;71.29
75063;BME280;63981;51.052;13.754;2023-03-25T08:53:47;99446.16;;;9.87;72.62
75063;BME280;63981;51.052;13.754;2023-03-25T08:56:13;99458.56;;;9.73;73.90
75063;BME280;63981;51.052;13.754;2023-03-25T08:58:39;99466.06;;;9.56;75.87
75063;BME280;63981;51.052;13.754;2023-03-25T09:01:05;99465.81;;;9.59;75.28
75063;BME280;63981;51.052;13.754;2023-03-25T09:03:31;99463.91;;;9.96;73.83
75063;BME280;63981;51.052;13.754;2023-03-25T09:06:02;99432.94;;;9.53;75.20
75063;BME280;63981;51.052;13.754;2023-03-25T09:08:28;99469.16;;;9.96;73.63
75063;BME280;63981;51.052;13.754;2023-03-25T09:10:54;99457.41;;;9.78;73.17
75063;BME280;63981;51.052;13.754;2023-03-25T09:13:20;99462.84;;;10.10;71.63
75063;BME280;63981;51.052;13.754;2023-03-25T09:15:46;99463.03;;;9.84;72.92
75063;BME280;63981;51.052;13.754;2023-03-25T09:18:12;99475.53;;;10.04;72.88
75063;BME280;63981;51.052;13.754;2023-03-25T09:20:38;99480.09;;;10.14;72.63
75063;BME280;63981;51.052;13.754;2023-03-25T09:23:05;99469.06;;;10.09;72.13
75063;BME280;63981;51.052;13.754;2023-03-25T09:25:31;99476.09;;;9.97;72.07
75063;BME280;63981;51.052;13.754;2023-03-25T09:27:57;99484.41;;;9.68;73.09
75063;BME280;63981;51.052;13.754;2023-03-25T09:30:23;99485.13;;;9.70;72.71
75063;BME280;63981;51.052;13.754;2023-03-25T09:32:49;99485.84;;;9.72;72.88
75063;BME280;63981;51.052;13.754;2023-03-25T09:35:14;99483.75;;;9.30;74.19
75063;BME280;63981;51.052;13.754;2023-03-25T09:37:40;99467.31;;;9.39;74.68
75063;BME280;63981;51.052;13.754;2023-03-25T09:40:06;99460.00;;;9.19;75.72
75063;BME280;63981;51.052;13.754;2023-03-25T09:42:44;99456.16;;;9.35;75.10
75063;BME280;63981;51.052;13.754;2023-03-25T09:48:12;99398.28;;;9.70;73.57
75063;BME280;63981;51.052;13.754;2023-03-25T09:50:43;99471.31;;;9.91;73.65
75063;BME280;63981;51.052;13.754;2023-03-25T09:53:30;99371.75;;;9.27;74.77
75063;BME280;63981;51.052;13.754;2023-03-25T09:56:00;99469.28;;;10.29;73.24
75063;BME280;63981;51.052;13.754;2023-03-25T09:58:46;99461.09;;;10.88;68.71
75063;BME280;63981;51.052;13.754;2023-03-25T10:01:32;99449.84;;;10.64;72.21
75063;BME280;63981;51.052;13.754;2023-03-25T10:18:03;99419.25;;;13.99;57.62
75063;BME280;63981;51.052;13.754;2023-03-25T10:20:51;99411.09;;;14.66;56.88
75063;BME280;63981;51.052;13.754;2023-03-25T10:23:42;99393.81;;;19.22;46.16
75063;BME280;63981;51.052;13.754;2023-03-25T10:26:25;99388.16;;;19.40;45.11
75063;BME280;63981;51.052;13.754;2023-03-25T10:28:58;99377.88;;;22.21;41.29
75063;BME280;63981;51.052;13.754;2023-03-25T10:31:28;99383.25;;;19.52;43.42
75063;BME280;63981;51.052;13.754;2023-03-25T10:33:59;99344.16;;;17.14;47.71
75063;BME280;63981;51.052;13.754;2023-03-25T10:36:33;99386.97;;;16.28;50.24
75063;BME280;63981;51.052;13.754;2023-03-25T10:39:04;99376.91;;;19.90;43.91
75063;BME280;63981;51.052;13.754;2023-03-25T10:41:34;99373.38;;;19.52;41.94
75063;BME280;63981;51.052;13.754;2023-03-25T10:44:10;99379.31;;;17.26;45.58
75063;BME280;63981;51.052;13.754;2023-03-25T10:46:41;99362.00;;;16.63;48.13
75063;BME280;63981;51.052;13.754;2023-03-25T10:49:19;99386.13;;;15.04;51.72
75063;BME280;63981;51.052;13.754;2023-03-25T10:51:48;99386.56;;;14.55;54.01
75063;BME280;63981;51.052;13.754;2023-03-25T10:54:17;99359.22;;;19.06;42.69
75063;BME280;63981;51.052;13.754;2023-03-25T10:56:46;99355.81;;;20.40;37.98
75063;BME280;63981;51.052;13.754;2023-03-25T11:01:44;99345.31;;;19.94;38.37
75063;BME280;63981;51.052;13.754;2023-03-25T11:04:14;99335.03;;;20.92;35.16
75063;BME280;63981;51.052;13.754;2023-03-25T11:06:45;99345.69;;;21.71;33.72
75063;BME280;63981;51.052;13.754;2023-03-25T11:09:26;99351.09;;;19.97;35.90
75063;BME280;63981;51.052;13.754;2023-03-25T11:11:58;99320.53;;;18.32;38.50
75063;BME280;63981;51.052;13.754;2023-03-25T11:14:26;99351.81;;;19.16;38.37
75063;BME280;63981;51.052;13.754;2023-03-25T11:22:08;99331.41;;;21.21;33.61
75063;BME280;63981;51.052;13.754;2023-03-25T11:24:40;99330.41;;;19.77;35.51
75063;BME280;63981;51.052;13.754;2023-03-25T11:27:07;99360.78;;;18.06;38.30
75063;BME280;63981;51.052;13.754;2023-03-25T11:29:35;99333.78;;;18.48;38.57
75063;BME280;63981;51.052;13.754;2023-03-25T11:32:14;99360.44;;;16.10;42.06
75063;BME280;63981;51.052;13.754;2023-03-25T11:34:46;99373.56;;;15.07;48.38
75063;BME280;63981;51.052;13.754;2023-03-25T11:37:20;99399.94;;;13.21;55.52
75063;BME280;63981;51.052;13.754;2023-03-25T11:39:54;99399.03;;;12.82;58.41
75063;BME280;63981;51.052;13.754;2023-03-25T11:42:30;99420.91;;;12.93;59.14
75063;BME280;63981;51.052;13.754;2023-03-25T11:44:59;99400.00;;;12.81;59.67
75063;BME280;63981;51.052;13.754;2023-03-25T11:47:29;99386.00;;;13.67;59.44
75063;BME280;63981;51.052;13.754;2023-03-25T11:49:56;99328.19;;;14.64;53.42
75063;BME280;63981;51.052;13.754;2023-03-25T11:52:30;99351.34;;;17.22;46.39
75063;BME280;63981;51.052;13.754;2023-03-25T11:55:00;99316.19;;;20.65;37.04
75063;BME280;63981;51.052;13.754;2023-03-25T11:57:29;99314.16;;;21.24;35.21
75063;BME280;63981;51.052;13.754;2023-03-25T12:00:18;99293.91;;;26.39;28.86
75063;BME280;63981;51.052;13.754;2023-03-25T12:02:45;99285.19;;;29.85;22.49
75063;BME280;63981;51.052;13.754;2023-03-25T12:05:14;99251.16;;;31.56;20.70
75063;BME280;63981;51.052;13.754;2023-03-25T12:08:00;99277.06;;;31.64;20.27
75063;BME280;63981;51.052;13.754;2023-03-25T12:15:53;99264.66;;;34.44;18.02
75063;BME280;63981;51.052;13.754;2023-03-25T12:35:17;99261.16;;;25.24;24.15
75063;BME280;63981;51.052;13.754;2023-03-25T12:38:04;99272.19;;;22.00;29.01
75063;BME280;63981;51.052;13.754;2023-03-25T12:40:58;99230.31;;;26.19;23.74
75063;BME280;63981;51.052;13.754;2023-03-25T12:46:39;99262.69;;;21.91;29.26
75063;BME280;63981;51.052;13.754;2023-03-25T12:52:18;99293.38;;;17.73;35.28
75063;BME280;63981;51.052;13.754;2023-03-25T13:03:19;99261.78;;;21.77;32.04
75063;BME280;63981;51.052;13.754;2023-03-25T13:08:32;99278.41;;;20.74;32.32
75063;BME280;63981;51.052;13.754;2023-03-25T13:11:14;99288.47;;;19.02;35.68
75063;BME280;63981;51.052;13.754;2023-03-25T13:13:43;99218.50;;;17.10;38.51
75063;BME280;63981;51.052;13.754;2023-03-25T13:16:14;99284.19;;;19.53;35.27
75063;BME280;63981;51.052;13.754;2023-03-25T13:18:54;99266.59;;;24.86;27.53
75063;BME280;63981;51.052;13.754;2023-03-25T13:21:29;99251.56;;;25.78;26.74
75063;BME280;63981;51.052;13.754;2023-03-25T13:24:00;99249.41;;;24.49;26.89
75063;BME280;63981;51.052;13.754;2023-03-25T13:26:29;99248.81;;;23.69;28.28
75063;BME280;63981;51.052;13.754;2023-03-25T13:29:00;99225.78;;;24.45;26.04
75063;BME280;63981;51.052;13.754;2023-03-25T13:31:45;99241.94;;;24.51;25.65
75063;BME280;63981;51.052;13.754;2023-03-25T13:37:15;99220.72;;;22.25;28.78
75063;BME280;63981;51.052;13.754;2023-03-25T13:45:42;99231.09;;;18.13;34.58
75063;BME280;63981;51.052;13.754;2023-03-25T13:50:43;99207.38;;;20.06;33.12
75063;BME280;63981;51.052;13.754;2023-03-25T14:06:45;99193.53;;;22.41;28.63
75063;BME280;63981;51.052;13.754;2023-03-25T14:12:40;99222.13;;;21.17;29.63
75063;BME280;63981;51.052;13.754;2023-03-25T14:15:14;99220.69;;;19.18;32.40
75063;BME280;63981;51.052;13.754;2023-03-25T14:17:42;99208.09;;;23.00;28.32
75063;BME280;63981;51.052;13.754;2023-03-25T14:20:11;99207.19;;;26.71;22.24
75063;BME280;63981;51.052;13.754;2023-03-25T14:22:42;99216.41;;;26.33;21.64
75063;BME280;63981;51.052;13.754;2023-03-25T14:25:20;99197.72;;;23.49;25.57
75063;BME280;63981;51.052;13.754;2023-03-25T14:27:50;99198.75;;;20.25;31.06
75063;BME280;63981;51.052;13.754;2023-03-25T14:30:22;99192.16;;;22.91;26.63
75063;BME280;63981;51.052;13.754;2023-03-25T14:32:49;99204.31;;;22.67;26.97
75063;BME280;63981;51.052;13.754;2023-03-25T14:48:50;99358.06;;;12.17;56.25
75063;BME280;63981;51.052;13.754;2023-03-25T14:51:43;99376.72;;;10.23;65.50
75063;BME280;63981;51.052;13.754;2023-03-25T14:54:28;99367.81;;;9.90;67.51
75063;BME280;63981;51.052;13.754;2023-03-25T14:57:13;99339.91;;;9.65;69.71
75063;BME280;63981;51.052;13.754;2023-03-25T14:59:47;99340.28;;;10.05;66.85
75063;BME280;63981;51.052;13.754;2023-03-25T15:02:34;99341.59;;;9.89;66.35
75063;BME280;63981;51.052;13.754;2023-03-25T15:07:46;99327.25;;;9.82;66.15
75063;BME280;63981;51.052;13.754;2023-03-25T15:10:22;99268.00;;;9.42;65.07
75063;BME280;63981;51.052;13.754;2023-03-25T15:13:04;99309.28;;;9.75;65.17
75063;BME280;63981;51.052;13.754;2023-03-25T15:15:53;99293.31;;;9.32;66.34
75063;BME280;63981;51.052;13.754;2023-03-25T15:21:13;99295.06;;;12.22;59.97
75063;BME280;63981;51.052;13.754;2023-03-25T15:23:42;99281.84;;;17.80;49.38
75063;BME280;63981;51.052;13.754;2023-03-25T15:37:11;99265.06;;;26.33;25.65
75063;BME280;63981;51.052;13.754;2023-03-25T15:43:40;99261.28;;;22.50;31.63
75063;BME280;63981;51.052;13.754;2023-03-25T15:51:32;99283.81;;;15.28;43.26
75063;BME280;63981;51.052;13.754;2023-03-25T15:54:24;99278.75;;;15.17;43.03
75063;BME280;63981;51.052;13.754;2023-03-25T15:56:57;99287.09;;;15.66;40.81
75063;BME280;63981;51.052;13.754;2023-03-25T15:59:43;99262.19;;;15.49;41.29
75063;BME280;63981;51.052;13.754;2023-03-25T16:02:32;99294.34;;;12.98;46.75